Terminal Aerodrome Forecast
Issued by NWS

Home | Current Version | Previous Version | Text Only | Print | Product List | Glossary On
Versions: 1 2 3 4 5 6 7 8 9 10 11 12 13 14 15 16
000
FTUS44 KLIX 171737
TAFHDC
TAF
KHDC 171737Z 1718/1818 23009KT P6SM SCT020 BKN070
     FM180000 24005KT P6SM SCT035 BKN110
     FM180400 29004KT 6SM BR BKN020 BKN035
     FM180500 VRB03KT 5SM BR BKN015 BKN030
     FM180900 VRB03KT 3SM BR BKN003 OVC020
     FM181200 VRB03KT P6SM BKN003 OVC010
     FM181700 15005KT P6SM BKN008=

USA.gov is the U.S. government's official web portal to all federal, state and local government web resources and services.